createdAt,value
2017-02-11T00:00:28.024Z,0
2017-02-11T00:01:38.368Z,0
2017-02-11T00:02:48.738Z,0
2017-02-11T00:03:59.491Z,0
2017-02-11T00:05:09.933Z,0
2017-02-11T00:06:20.314Z,0
2017-02-11T00:07:30.690Z,0
2017-02-11T00:08:41.453Z,0
2017-02-11T00:09:51.832Z,0
2017-02-11T00:11:02.580Z,0
2017-02-11T00:12:13.348Z,0
2017-02-11T00:13:24.103Z,0
2017-02-11T00:14:34.891Z,0
2017-02-11T00:15:45.666Z,0
2017-02-11T00:16:55.634Z,0
2017-02-11T00:18:06.384Z,0
2017-02-11T00:19:17.143Z,0
2017-02-11T00:20:27.114Z,0
2017-02-11T00:21:37.099Z,0
2017-02-11T00:22:47.875Z,0
2017-02-11T00:23:58.662Z,0
2017-02-11T00:25:09.423Z,0
2017-02-11T00:26:19.814Z,0
2017-02-11T00:27:30.616Z,0
2017-02-11T00:28:40.971Z,0
2017-02-11T00:29:51.710Z,0
2017-02-11T00:31:01.270Z,0
2017-02-11T00:32:11.232Z,0
2017-02-11T00:33:21.184Z,0
2017-02-11T00:34:31.922Z,0
2017-02-11T00:35:41.901Z,0
2017-02-11T00:36:51.858Z,0
2017-02-11T00:38:02.228Z,0
2017-02-11T00:39:12.607Z,0
2017-02-11T00:40:23.363Z,0
2017-02-11T00:41:34.130Z,0
2017-02-11T00:42:44.496Z,0
2017-02-11T00:43:55.267Z,0
2017-02-11T00:45:06.021Z,0
2017-02-11T00:46:16.789Z,0
2017-02-11T00:47:27.564Z,0
2017-02-11T00:48:38.338Z,0
2017-02-11T00:49:49.097Z,0
2017-02-11T00:50:59.464Z,0
2017-02-11T00:52:09.443Z,0
2017-02-11T00:53:19.805Z,0
2017-02-11T00:54:29.769Z,0
2017-02-11T00:55:40.128Z,0
2017-02-11T00:56:50.886Z,0
2017-02-11T00:58:01.258Z,0
2017-02-11T00:59:11.225Z,0
2017-02-11T01:00:21.594Z,0
2017-02-11T01:01:31.571Z,0
2017-02-11T01:02:41.128Z,0
2017-02-11T01:03:51.481Z,0
2017-02-11T01:05:01.441Z,0
2017-02-11T01:06:11.409Z,0
2017-02-11T01:07:21.766Z,0
2017-02-11T01:08:32.120Z,0
2017-02-11T01:09:42.869Z,0
2017-02-11T01:10:53.231Z,0
2017-02-11T01:12:03.983Z,0
2017-02-11T01:13:14.356Z,0
2017-02-11T01:14:24.328Z,0
2017-02-11T01:15:34.307Z,0
2017-02-11T01:16:45.067Z,0
2017-02-11T01:17:55.030Z,0
2017-02-11T01:19:05.235Z,0
2017-02-11T01:20:15.641Z,0
2017-02-11T01:21:25.621Z,0
2017-02-11T01:22:36.374Z,0
2017-02-11T01:23:46.370Z,0
2017-02-11T01:24:56.718Z,0
2017-02-11T01:26:07.462Z,0
2017-02-11T01:27:17.815Z,0
2017-02-11T01:28:28.199Z,0
2017-02-11T01:29:39.009Z,0
2017-02-11T01:30:49.379Z,0
2017-02-11T01:31:59.342Z,0
2017-02-11T01:33:10.082Z,0
2017-02-11T01:34:20.847Z,0
2017-02-11T01:35:31.616Z,0
2017-02-11T01:36:42.378Z,0
2017-02-11T01:37:52.336Z,0
2017-02-11T01:39:03.086Z,0
2017-02-11T01:40:13.857Z,0
2017-02-11T01:41:24.244Z,0
2017-02-11T01:42:34.804Z,0
2017-02-11T01:43:44.835Z,0
2017-02-11T01:44:54.788Z,0
2017-02-11T01:46:05.535Z,0
2017-02-11T01:47:16.337Z,0
2017-02-11T01:48:27.079Z,0
2017-02-11T01:49:37.525Z,0
2017-02-11T01:50:47.883Z,0
2017-02-11T01:51:58.245Z,0
2017-02-11T01:53:08.600Z,0
2017-02-11T01:54:19.341Z,0
2017-02-11T01:55:29.295Z,0
2017-02-11T01:56:40.061Z,0
2017-02-11T01:57:50.422Z,0
2017-02-11T01:59:01.201Z,0
2017-02-11T02:00:11.813Z,0
2017-02-11T02:01:22.180Z,0
2017-02-11T02:02:32.548Z,0
2017-02-11T02:03:42.124Z,0
2017-02-11T02:04:52.888Z,0
2017-02-11T02:06:03.635Z,0
2017-02-11T02:07:13.599Z,0
2017-02-11T02:08:23.565Z,0
2017-02-11T02:09:33.947Z,0
2017-02-11T02:10:44.316Z,0
2017-02-11T02:11:54.685Z,0
2017-02-11T02:13:05.038Z,0
2017-02-11T02:14:15.794Z,0
2017-02-11T02:15:26.745Z,0
2017-02-11T02:16:37.099Z,0
2017-02-11T02:17:47.462Z,0
2017-02-11T02:18:57.485Z,0
2017-02-11T02:20:07.050Z,0
2017-02-11T02:21:17.783Z,0
2017-02-11T02:22:28.536Z,0
2017-02-11T02:23:39.278Z,0
2017-02-11T02:24:50.248Z,0
2017-02-11T02:26:00.995Z,0
2017-02-11T02:27:11.353Z,0
2017-02-11T02:28:21.717Z,0
2017-02-11T02:29:32.096Z,0
2017-02-11T02:30:42.131Z,0
2017-02-11T02:31:52.488Z,0
2017-02-11T02:33:02.471Z,0
2017-02-11T02:34:12.827Z,0
2017-02-11T02:35:23.198Z,0
2017-02-11T02:36:33.556Z,0
2017-02-11T02:37:44.309Z,0
2017-02-11T02:38:54.670Z,0
2017-02-11T02:40:05.437Z,0
2017-02-11T02:41:16.171Z,0
2017-02-11T02:42:26.532Z,0
2017-02-11T02:43:37.288Z,0
2017-02-11T02:44:47.651Z,0
2017-02-11T02:45:58.006Z,0
2017-02-11T02:47:08.369Z,0
2017-02-11T02:48:18.379Z,0
2017-02-11T02:49:28.716Z,0
2017-02-11T02:50:39.070Z,0
2017-02-11T02:51:49.828Z,0
2017-02-11T02:53:00.243Z,0
2017-02-11T02:54:10.214Z,0
2017-02-11T02:55:20.594Z,0
2017-02-11T02:56:31.347Z,0
2017-02-11T02:57:41.704Z,0
2017-02-11T02:58:52.451Z,0
2017-02-11T03:00:03.222Z,0
2017-02-11T03:01:13.988Z,0
2017-02-11T03:32:48.450Z,0
2017-02-11T03:33:59.200Z,0
2017-02-11T03:35:09.555Z,0
2017-02-11T03:36:19.916Z,0
2017-02-11T03:37:30.274Z,0
2017-02-11T03:38:41.084Z,0
2017-02-11T03:39:51.831Z,0
2017-02-11T03:41:02.590Z,0
2017-02-11T03:42:13.565Z,0
2017-02-11T03:43:24.335Z,0
2017-02-11T03:44:34.692Z,0
2017-02-11T03:45:45.455Z,0
2017-02-11T03:46:56.057Z,0
2017-02-11T03:48:06.815Z,0
2017-02-11T03:49:17.556Z,0
2017-02-11T03:50:28.298Z,0
2017-02-11T03:51:38.644Z,0
2017-02-11T03:52:49.387Z,0
2017-02-11T03:53:59.743Z,0
2017-02-11T03:55:10.501Z,0
2017-02-11T03:56:20.465Z,0
2017-02-11T03:57:31.206Z,0
2017-02-11T03:58:41.952Z,0
2017-02-11T03:59:52.301Z,0
2017-02-11T04:01:02.264Z,0
2017-02-11T04:02:13.014Z,0
2017-02-11T04:03:23.376Z,0
2017-02-11T04:04:34.122Z,0
2017-02-11T04:05:44.466Z,0
2017-02-11T04:06:55.224Z,0
2017-02-11T04:08:05.586Z,0
2017-02-11T04:09:15.936Z,0
2017-02-11T04:10:26.291Z,0
2017-02-11T04:11:36.644Z,0
2017-02-11T04:12:46.611Z,0
2017-02-11T04:13:56.993Z,0
2017-02-11T04:15:07.749Z,0
2017-02-11T04:16:18.105Z,0
2017-02-11T04:17:28.896Z,0
2017-02-11T04:18:39.651Z,0
2017-02-11T04:19:50.021Z,0
2017-02-11T04:21:00.426Z,0
2017-02-11T04:22:11.167Z,0
2017-02-11T04:23:21.532Z,0
2017-02-11T04:24:32.287Z,0
2017-02-11T04:25:42.279Z,0
2017-02-11T04:26:52.632Z,0
2017-02-11T04:28:03.384Z,0
2017-02-11T04:29:14.120Z,0
2017-02-11T04:30:24.506Z,0
2017-02-11T04:31:34.918Z,0
2017-02-11T04:32:45.707Z,0
2017-02-11T04:33:56.461Z,0
2017-02-11T04:35:06.819Z,0
2017-02-11T04:36:16.777Z,0
2017-02-11T04:37:27.533Z,0
2017-02-11T04:38:38.284Z,0
2017-02-11T04:39:48.236Z,0
2017-02-11T04:40:58.997Z,0
2017-02-11T04:42:09.750Z,0
2017-02-11T04:43:20.740Z,0
2017-02-11T04:44:31.134Z,0
2017-02-11T04:45:41.499Z,0
2017-02-11T04:46:52.260Z,0
2017-02-11T04:48:02.619Z,0
2017-02-11T04:49:12.970Z,0
2017-02-11T04:50:23.329Z,0
2017-02-11T04:51:34.076Z,0
2017-02-11T04:52:44.424Z,0
2017-02-11T04:53:54.399Z,0
2017-02-11T04:55:05.143Z,0
2017-02-11T04:56:15.895Z,0
2017-02-11T04:57:26.253Z,0
2017-02-11T04:58:36.625Z,0
2017-02-11T04:59:47.001Z,0
2017-02-11T05:00:57.409Z,0
2017-02-11T05:02:06.987Z,0
2017-02-11T05:03:17.362Z,0
2017-02-11T05:04:28.165Z,0
2017-02-11T05:05:38.518Z,0
2017-02-11T05:06:48.885Z,0
2017-02-11T05:07:59.256Z,0
2017-02-11T05:09:10.020Z,0
2017-02-11T05:10:20.367Z,0
2017-02-11T05:11:31.113Z,0
2017-02-11T05:12:41.482Z,0
2017-02-11T05:13:51.847Z,0
2017-02-11T05:15:02.599Z,0
2017-02-11T05:16:12.964Z,0
2017-02-11T05:17:22.518Z,0
2017-02-11T05:18:32.868Z,0
2017-02-11T05:19:43.620Z,0
2017-02-11T05:20:54.348Z,0
2017-02-11T05:22:05.095Z,0
2017-02-11T05:23:15.456Z,0
2017-02-11T05:24:25.859Z,0
2017-02-11T05:25:36.218Z,0
2017-02-11T05:26:46.169Z,0
2017-02-11T05:27:56.533Z,0
2017-02-11T05:29:06.913Z,0
2017-02-11T05:30:17.680Z,0
2017-02-11T05:31:28.436Z,0
2017-02-11T05:32:39.198Z,0
2017-02-11T05:33:49.957Z,0
2017-02-11T05:35:00.737Z,0
2017-02-11T05:36:11.494Z,0
2017-02-11T05:37:21.851Z,0
2017-02-11T05:38:32.211Z,0
2017-02-11T05:39:42.603Z,0
2017-02-11T05:40:52.992Z,0
2017-02-11T05:42:03.752Z,0
2017-02-11T05:43:14.519Z,0
2017-02-11T05:44:24.880Z,0
2017-02-11T05:45:35.233Z,0
2017-02-11T05:46:45.979Z,0
2017-02-11T05:47:56.327Z,0
2017-02-11T05:49:07.132Z,0
2017-02-11T05:50:17.880Z,0
2017-02-11T05:51:27.835Z,0
2017-02-11T05:52:38.591Z,0
2017-02-11T05:53:49.357Z,0
2017-02-11T05:54:58.945Z,0
2017-02-11T05:56:09.303Z,0
2017-02-11T05:57:20.054Z,0
2017-02-11T05:58:30.012Z,0
2017-02-11T05:59:40.756Z,0
2017-02-11T06:00:50.321Z,0
2017-02-11T06:02:00.663Z,0
2017-02-11T06:03:11.413Z,0
2017-02-11T06:04:22.185Z,0
2017-02-11T06:05:32.805Z,0
2017-02-11T06:06:43.175Z,0
2017-02-11T06:07:53.526Z,0
2017-02-11T06:09:04.267Z,0
2017-02-11T06:10:14.614Z,0
2017-02-11T06:11:24.968Z,0
2017-02-11T06:12:35.708Z,0
2017-02-11T06:13:46.449Z,0
2017-02-11T06:14:57.239Z,5
2017-02-11T06:16:08.007Z,5
2017-02-11T06:17:18.408Z,5
2017-02-11T06:18:29.165Z,5
2017-02-11T06:19:39.922Z,5
2017-02-11T06:20:50.671Z,5
2017-02-11T06:22:01.037Z,5
2017-02-11T06:23:11.387Z,5
2017-02-11T06:24:22.140Z,5
2017-02-11T06:25:32.891Z,5
2017-02-11T06:26:43.667Z,5
2017-02-11T06:27:54.224Z,5
2017-02-11T06:29:04.637Z,5
2017-02-11T06:30:15.401Z,5
2017-02-11T06:31:26.146Z,5
2017-02-11T06:32:36.494Z,10
2017-02-11T06:33:46.860Z,10
2017-02-11T06:34:57.234Z,10
2017-02-11T06:36:07.978Z,10
2017-02-11T06:37:18.729Z,10
2017-02-11T06:38:28.689Z,10
2017-02-11T06:39:39.051Z,10
2017-02-11T06:40:49.406Z,15
2017-02-11T06:42:00.170Z,15
2017-02-11T06:43:09.745Z,15
2017-02-11T06:44:19.704Z,15
2017-02-11T06:45:30.061Z,15
2017-02-11T06:46:40.415Z,15
2017-02-11T06:47:51.192Z,20
2017-02-11T06:49:01.941Z,20
2017-02-11T06:50:12.301Z,20
2017-02-11T06:51:23.050Z,25
2017-02-11T06:52:33.848Z,25
2017-02-11T06:53:44.640Z,25
2017-02-11T06:54:54.202Z,30
2017-02-11T06:56:04.960Z,30
2017-02-11T06:57:15.718Z,30
2017-02-11T06:58:26.084Z,35
2017-02-11T06:59:36.837Z,35
2017-02-11T07:00:47.201Z,35
2017-02-11T07:01:57.550Z,40
2017-02-11T07:03:07.529Z,40
2017-02-11T07:04:17.942Z,40
2017-02-11T07:05:28.698Z,45
2017-02-11T07:06:39.061Z,45
2017-02-11T07:07:49.042Z,50
2017-02-11T07:09:00.887Z,45
2017-02-11T07:10:11.059Z,45
2017-02-11T07:11:21.813Z,50
2017-02-11T07:12:32.210Z,50
2017-02-11T07:13:42.178Z,55
2017-02-11T07:14:52.537Z,55
2017-02-11T07:16:03.299Z,60
2017-02-11T07:17:14.047Z,60
2017-02-11T07:18:24.019Z,65
2017-02-11T07:19:34.370Z,65
2017-02-11T07:20:45.155Z,70
2017-02-11T07:21:55.974Z,75
2017-02-11T07:23:06.731Z,75
2017-02-11T07:24:16.304Z,80
2017-02-11T07:25:27.072Z,80
2017-02-11T07:26:37.670Z,80
2017-02-11T07:27:47.650Z,85
2017-02-11T07:28:58.434Z,85
2017-02-11T07:30:08.796Z,90
2017-02-11T07:31:19.172Z,95
2017-02-11T07:32:29.925Z,95
2017-02-11T07:33:40.309Z,95
2017-02-11T07:34:50.669Z,100
2017-02-11T07:36:01.033Z,100
2017-02-11T07:37:11.796Z,105
2017-02-11T07:38:22.546Z,105
2017-02-11T07:39:32.972Z,105
2017-02-11T07:40:43.320Z,110
2017-02-11T07:41:54.059Z,115
2017-02-11T07:43:04.812Z,115
2017-02-11T07:44:14.761Z,120
2017-02-11T07:45:24.721Z,120
2017-02-11T07:46:35.098Z,120
2017-02-11T07:47:45.444Z,120
2017-02-11T07:48:55.812Z,125
2017-02-11T07:50:06.189Z,125
2017-02-11T07:51:16.948Z,125
2017-02-11T07:52:27.327Z,125
2017-02-11T07:53:38.098Z,130
2017-02-11T07:54:48.467Z,130
2017-02-11T07:55:58.825Z,135
2017-02-11T07:57:08.793Z,135
2017-02-11T07:58:19.595Z,140
2017-02-11T07:59:29.943Z,140
2017-02-11T08:00:40.720Z,145
2017-02-11T08:01:51.071Z,150
2017-02-11T08:03:01.035Z,160
2017-02-11T08:04:11.019Z,165
2017-02-11T08:05:20.204Z,170
2017-02-11T08:06:30.582Z,170
2017-02-11T08:07:41.343Z,170
2017-02-11T08:08:52.095Z,175
2017-02-11T08:10:02.468Z,170
2017-02-11T08:11:12.458Z,160
2017-02-11T08:12:23.216Z,165
2017-02-11T08:13:33.587Z,160
2017-02-11T08:14:44.006Z,160
2017-02-11T08:15:53.976Z,185
2017-02-11T08:17:04.330Z,190
2017-02-11T08:18:14.693Z,190
2017-02-11T08:19:25.059Z,190
2017-02-11T08:20:35.897Z,195
2017-02-11T08:21:45.929Z,195
2017-02-11T08:22:56.676Z,210
2017-02-11T08:24:06.258Z,205
2017-02-11T08:25:17.012Z,205
2017-02-11T08:26:27.785Z,205
2017-02-11T08:27:38.148Z,210
2017-02-11T08:28:48.520Z,200
2017-02-11T08:29:58.869Z,205
2017-02-11T08:31:08.469Z,200
2017-02-11T08:32:18.830Z,195
2017-02-11T08:33:29.196Z,195
2017-02-11T08:34:39.968Z,175
2017-02-11T08:35:49.966Z,190
2017-02-11T08:37:00.352Z,200
2017-02-11T08:38:11.120Z,200
2017-02-11T08:39:21.491Z,195
2017-02-11T08:40:31.851Z,200
2017-02-11T08:41:42.229Z,200
2017-02-11T08:42:52.591Z,210
2017-02-11T08:44:03.440Z,200
2017-02-11T08:45:13.419Z,205
2017-02-11T08:46:24.182Z,210
2017-02-11T08:47:35.077Z,220
2017-02-11T08:48:45.468Z,210
2017-02-11T08:49:56.323Z,205
2017-02-11T08:51:07.121Z,235
2017-02-11T08:52:17.909Z,230
2017-02-11T08:53:28.965Z,230
2017-02-11T08:54:39.420Z,240
2017-02-11T08:55:50.283Z,250
2017-02-11T08:57:00.664Z,220
2017-02-11T08:58:10.665Z,215
2017-02-11T08:59:21.069Z,210
2017-02-11T09:00:31.465Z,210
2017-02-11T09:01:42.338Z,200
2017-02-11T09:02:53.146Z,235
2017-02-11T09:04:03.926Z,220
2017-02-11T09:05:13.898Z,215
2017-02-11T09:06:24.653Z,220
2017-02-11T09:07:35.400Z,180
2017-02-11T09:08:45.752Z,175
2017-02-11T09:09:56.105Z,190
2017-02-11T09:11:06.468Z,215
2017-02-11T09:12:16.672Z,190
2017-02-11T09:13:26.636Z,230
2017-02-11T09:14:36.985Z,195
2017-02-11T09:15:47.355Z,195
2017-02-11T09:16:57.345Z,175
2017-02-11T09:18:08.104Z,190
2017-02-11T09:19:18.887Z,200
2017-02-11T09:20:29.252Z,210
2017-02-11T09:21:39.410Z,195
2017-02-11T09:22:50.196Z,190
2017-02-11T09:24:01.011Z,195
2017-02-11T09:25:10.983Z,230
2017-02-11T09:26:21.356Z,180
2017-02-11T09:27:32.119Z,185
2017-02-11T09:28:42.885Z,225
2017-02-11T09:29:53.230Z,185
2017-02-11T09:31:03.188Z,210
2017-02-11T09:32:13.949Z,185
2017-02-11T09:33:24.726Z,190
2017-02-11T09:34:35.498Z,190
2017-02-11T09:35:45.489Z,185
2017-02-11T09:36:56.287Z,185
2017-02-11T09:38:07.270Z,190
2017-02-11T09:39:18.025Z,185
2017-02-11T09:40:28.396Z,190
2017-02-11T09:41:38.755Z,185
2017-02-11T09:42:49.524Z,190
2017-02-11T09:43:59.898Z,215
2017-02-11T09:45:10.647Z,215
2017-02-11T09:46:21.002Z,230
2017-02-11T09:47:31.371Z,220
2017-02-11T09:48:41.790Z,235
2017-02-11T09:49:52.544Z,215
2017-02-11T09:51:03.306Z,215
2017-02-11T09:52:13.686Z,215
2017-02-11T09:53:24.466Z,225
2017-02-11T09:54:35.230Z,225
2017-02-11T09:55:45.188Z,220
2017-02-11T09:56:55.505Z,220
2017-02-11T09:58:05.453Z,215
2017-02-11T10:00:04.084Z,200
2017-02-11T10:01:14.095Z,195
2017-02-11T10:02:24.861Z,200
2017-02-11T10:03:35.634Z,185
2017-02-11T10:04:45.992Z,200
2017-02-11T10:05:56.371Z,200
2017-02-11T10:07:06.324Z,200
2017-02-11T10:08:17.079Z,230
2017-02-11T10:09:27.842Z,210
2017-02-11T10:10:37.830Z,250
2017-02-11T10:11:47.784Z,235
2017-02-11T10:12:58.573Z,210
2017-02-11T10:14:09.329Z,225
2017-02-11T10:15:20.112Z,245
2017-02-11T10:16:30.865Z,245
2017-02-11T10:17:41.305Z,260
2017-02-11T10:18:51.683Z,270
2017-02-11T10:20:02.042Z,265
2017-02-11T10:21:12.420Z,265
2017-02-11T10:22:23.187Z,270
2017-02-11T10:23:32.760Z,275
2017-02-11T10:24:43.530Z,215
2017-02-11T10:25:53.500Z,245
2017-02-11T10:27:03.892Z,255
2017-02-11T10:28:14.652Z,230
2017-02-11T10:29:25.428Z,230
2017-02-11T10:30:36.201Z,235
2017-02-11T10:31:46.995Z,240
2017-02-11T10:32:57.777Z,230
2017-02-11T10:34:08.157Z,205
2017-02-11T10:35:18.933Z,185
2017-02-11T10:36:28.901Z,190
2017-02-11T10:37:39.668Z,200
2017-02-11T10:38:49.643Z,210
2017-02-11T10:40:00.391Z,215
2017-02-11T10:41:10.411Z,235
2017-02-11T10:42:21.171Z,250
2017-02-11T10:43:31.925Z,260
2017-02-11T10:44:42.678Z,275
2017-02-11T10:45:53.064Z,285
2017-02-11T10:47:03.828Z,255
2017-02-11T10:48:13.835Z,265
2017-02-11T10:49:24.607Z,305
2017-02-11T10:50:35.347Z,300
2017-02-11T10:51:45.734Z,275
2017-02-11T10:52:56.558Z,240
2017-02-11T10:54:06.522Z,235
2017-02-11T10:55:16.684Z,240
2017-02-11T10:56:27.600Z,225
2017-02-11T10:57:38.371Z,225
2017-02-11T10:58:49.179Z,215
2017-02-11T10:59:59.626Z,215
2017-02-11T11:01:10.392Z,210
2017-02-11T11:02:20.774Z,225
2017-02-11T11:03:30.779Z,210
2017-02-11T11:04:40.749Z,205
2017-02-11T11:05:50.339Z,215
2017-02-11T11:07:01.113Z,220
2017-02-11T11:08:11.506Z,225
2017-02-11T11:09:22.272Z,220
2017-02-11T11:10:33.061Z,215
2017-02-11T11:11:43.468Z,220
2017-02-11T11:12:54.239Z,220
2017-02-11T11:14:05.057Z,210
2017-02-11T11:15:15.841Z,205
2017-02-11T11:16:25.801Z,205
2017-02-11T11:17:36.564Z,210
2017-02-11T11:18:46.942Z,205
2017-02-11T11:19:56.920Z,210
2017-02-11T11:21:07.683Z,220
2017-02-11T11:22:18.467Z,205
2017-02-11T11:23:28.832Z,205
2017-02-11T11:24:39.221Z,215
2017-02-11T11:25:49.988Z,220
2017-02-11T11:27:00.368Z,210
2017-02-11T11:28:10.445Z,205
2017-02-11T11:29:21.255Z,210
2017-02-11T11:30:30.823Z,200
2017-02-11T11:31:41.599Z,205
2017-02-11T11:32:51.578Z,200
2017-02-11T11:34:01.989Z,205
2017-02-11T11:35:12.373Z,205
2017-02-11T11:36:22.716Z,205
2017-02-11T11:37:33.124Z,205
2017-02-11T11:38:43.886Z,205
2017-02-11T11:39:53.929Z,210
2017-02-11T11:41:04.325Z,205
2017-02-11T11:42:14.692Z,200
2017-02-11T11:43:25.467Z,200
2017-02-11T11:44:36.224Z,195
2017-02-11T11:45:46.983Z,200
2017-02-11T11:46:57.577Z,205
2017-02-11T11:48:08.038Z,205
2017-02-11T11:49:18.455Z,200
2017-02-11T11:50:28.102Z,200
2017-02-11T11:51:39.005Z,200
2017-02-11T11:52:49.959Z,200
2017-02-11T11:54:00.931Z,210
2017-02-11T11:55:11.494Z,205
2017-02-11T11:56:22.361Z,200
2017-02-11T11:57:32.752Z,185
2017-02-11T11:58:43.100Z,180
2017-02-11T11:59:53.462Z,185
2017-02-11T12:01:04.185Z,180
2017-02-11T12:02:14.944Z,185
2017-02-11T12:03:26.151Z,195
2017-02-11T12:04:36.937Z,215
2017-02-11T12:05:47.883Z,225
2017-02-11T12:06:59.021Z,205
2017-02-11T12:08:09.477Z,215
2017-02-11T12:09:19.864Z,230
2017-02-11T12:10:29.775Z,215
2017-02-11T12:11:40.274Z,205
2017-02-11T12:12:51.066Z,185
2017-02-11T12:14:01.729Z,170
2017-02-11T12:15:12.820Z,155
2017-02-11T12:16:23.588Z,140
2017-02-11T12:17:34.368Z,125
2017-02-11T12:18:44.737Z,115
2017-02-11T12:19:55.471Z,110
2017-02-11T12:21:06.080Z,105
2017-02-11T12:22:17.164Z,105
2017-02-11T12:23:27.554Z,105
2017-02-11T12:24:38.457Z,105
2017-02-11T12:25:49.247Z,100
2017-02-11T12:27:00.142Z,105
2017-02-11T12:28:10.565Z,105
2017-02-11T12:29:21.613Z,105
2017-02-11T12:30:31.973Z,105
2017-02-11T12:31:42.983Z,105
2017-02-11T12:32:53.498Z,105
2017-02-11T12:34:03.908Z,110
2017-02-11T12:35:14.275Z,110
2017-02-11T12:36:24.673Z,120
2017-02-11T12:37:35.036Z,115
2017-02-11T12:38:45.804Z,115
2017-02-11T12:39:56.585Z,115
2017-02-11T12:41:07.368Z,120
2017-02-11T12:42:17.330Z,120
2017-02-11T12:43:27.292Z,120
2017-02-11T12:44:37.332Z,125
2017-02-11T12:45:47.298Z,125
2017-02-11T12:46:57.991Z,125
2017-02-11T12:48:08.756Z,120
2017-02-11T12:49:19.517Z,120
2017-02-11T12:50:29.946Z,120
2017-02-11T12:51:39.905Z,115
2017-02-11T12:52:50.704Z,115
2017-02-11T12:54:01.470Z,110
2017-02-11T12:55:12.467Z,110
2017-02-11T12:56:23.264Z,110
2017-02-11T12:57:33.232Z,110
2017-02-11T12:58:44.025Z,105
2017-02-11T12:59:54.788Z,105
2017-02-11T13:01:05.161Z,105
2017-02-11T13:02:15.127Z,105
2017-02-11T13:03:25.891Z,105
2017-02-11T13:04:36.244Z,100
2017-02-11T13:05:46.589Z,100
2017-02-11T13:06:56.968Z,105
2017-02-11T13:08:07.360Z,105
2017-02-11T13:09:16.929Z,110
2017-02-11T13:10:27.676Z,110
2017-02-11T13:11:38.079Z,115
2017-02-11T13:12:48.834Z,115
2017-02-11T13:13:58.883Z,120
2017-02-11T13:15:09.667Z,115
2017-02-11T13:16:20.031Z,115
2017-02-11T13:17:30.786Z,115
2017-02-11T13:18:41.559Z,115
2017-02-11T13:19:51.975Z,115
2017-02-11T13:21:01.946Z,110
2017-02-11T13:22:12.315Z,115
2017-02-11T13:23:23.084Z,110
2017-02-11T13:24:33.848Z,110
2017-02-11T13:25:44.231Z,100
2017-02-11T13:26:54.586Z,100
2017-02-11T13:28:04.938Z,100
2017-02-11T13:29:15.299Z,100
2017-02-11T13:30:26.082Z,100
2017-02-11T13:31:36.446Z,95
2017-02-11T13:32:46.813Z,85
2017-02-11T13:33:57.562Z,85
2017-02-11T13:35:08.352Z,85
2017-02-11T13:36:18.703Z,90
2017-02-11T13:37:29.472Z,90
2017-02-11T13:38:39.463Z,90
2017-02-11T13:39:50.212Z,95
2017-02-11T13:41:00.633Z,95
2017-02-11T13:42:11.480Z,95
2017-02-11T13:43:21.875Z,100
2017-02-11T13:44:32.234Z,100
2017-02-11T13:45:42.611Z,105
2017-02-11T13:46:52.994Z,110
2017-02-11T13:48:03.336Z,110
2017-02-11T13:49:14.134Z,110
2017-02-11T13:50:24.515Z,105
2017-02-11T13:51:34.870Z,110
2017-02-11T13:52:45.218Z,100
2017-02-11T13:53:55.576Z,100
2017-02-11T13:55:06.329Z,105
2017-02-11T13:56:16.675Z,110
2017-02-11T13:57:27.472Z,115
2017-02-11T13:58:37.852Z,120
2017-02-11T13:59:48.665Z,120
2017-02-11T14:00:58.640Z,125
2017-02-11T14:02:09.011Z,125
2017-02-11T14:03:19.376Z,120
2017-02-11T14:04:30.157Z,120
2017-02-11T14:05:40.529Z,115
2017-02-11T14:06:50.899Z,115
2017-02-11T14:08:01.649Z,110
2017-02-11T14:09:12.026Z,105
2017-02-11T14:10:22.439Z,95
2017-02-11T14:11:32.822Z,85
2017-02-11T14:12:43.822Z,85
2017-02-11T14:13:54.180Z,80
2017-02-11T14:15:04.947Z,80
2017-02-11T14:16:15.691Z,75
2017-02-11T14:17:26.461Z,75
2017-02-11T14:18:36.873Z,80
2017-02-11T14:19:47.210Z,80
2017-02-11T14:20:57.595Z,80
2017-02-11T14:22:07.968Z,80
2017-02-11T14:23:17.941Z,85
2017-02-11T14:24:28.344Z,80
2017-02-11T14:25:39.136Z,80
2017-02-11T14:26:49.500Z,80
2017-02-11T14:27:59.862Z,80
2017-02-11T14:29:09.443Z,75
2017-02-11T14:30:19.791Z,75
2017-02-11T14:31:30.547Z,70
2017-02-11T14:32:41.302Z,65
2017-02-11T14:33:52.067Z,65
2017-02-11T14:35:02.442Z,65
2017-02-11T14:36:12.790Z,65
2017-02-11T14:37:23.542Z,65
2017-02-11T14:38:33.889Z,65
2017-02-11T14:39:44.647Z,65
2017-02-11T14:40:55.003Z,65
2017-02-11T14:42:05.805Z,60
2017-02-11T14:43:16.179Z,60
2017-02-11T14:44:26.547Z,60
2017-02-11T14:45:36.912Z,60
2017-02-11T14:46:47.699Z,55
2017-02-11T14:47:58.472Z,50
2017-02-11T14:49:08.869Z,50
2017-02-11T14:50:18.880Z,45
2017-02-11T14:51:29.265Z,45
2017-02-11T14:52:39.239Z,45
2017-02-11T14:53:49.652Z,45
2017-02-11T14:55:00.024Z,45
2017-02-11T14:56:10.389Z,40
2017-02-11T14:57:21.138Z,40
2017-02-11T14:58:31.908Z,40
2017-02-11T14:59:42.665Z,40
2017-02-11T15:00:53.027Z,35
2017-02-11T15:02:03.800Z,35
2017-02-11T15:03:14.562Z,35
2017-02-11T15:04:25.338Z,35
2017-02-11T15:05:36.159Z,30
2017-02-11T15:06:46.536Z,30
2017-02-11T15:07:57.141Z,30
2017-02-11T15:09:06.777Z,30
2017-02-11T15:10:17.137Z,30
2017-02-11T15:11:27.530Z,30
2017-02-11T15:12:38.286Z,30
2017-02-11T15:13:48.271Z,25
2017-02-11T15:14:58.239Z,25
2017-02-11T15:16:08.619Z,25
2017-02-11T15:17:19.441Z,25
2017-02-11T15:18:30.212Z,25
2017-02-11T15:19:40.961Z,20
2017-02-11T15:20:51.344Z,20
2017-02-11T15:22:02.111Z,20
2017-02-11T15:23:12.866Z,20
2017-02-11T15:24:23.250Z,20
2017-02-11T15:25:34.026Z,20
2017-02-11T15:26:43.998Z,20
2017-02-11T15:27:54.392Z,20
2017-02-11T15:29:04.807Z,15
2017-02-11T15:30:15.152Z,15
2017-02-11T15:31:25.910Z,15
2017-02-11T15:32:36.694Z,15
2017-02-11T15:33:47.454Z,15
2017-02-11T15:34:57.915Z,15
2017-02-11T15:36:08.691Z,15
2017-02-11T15:37:19.470Z,15
2017-02-11T15:38:30.234Z,10
2017-02-11T15:39:41.002Z,10
2017-02-11T15:40:51.743Z,10
2017-02-11T15:42:01.727Z,10
2017-02-11T15:43:12.479Z,10
2017-02-11T15:44:22.856Z,10
2017-02-11T15:45:33.220Z,10
2017-02-11T15:46:43.189Z,5
2017-02-11T15:47:53.951Z,5
2017-02-11T15:49:04.699Z,5
2017-02-11T15:50:15.442Z,5
2017-02-11T15:51:25.409Z,5
2017-02-11T15:52:35.821Z,5
2017-02-11T15:53:46.182Z,5
2017-02-11T15:54:56.172Z,5
2017-02-11T15:56:06.564Z,5
2017-02-11T15:57:17.330Z,0
2017-02-11T15:58:27.301Z,0
2017-02-11T15:59:38.059Z,0
2017-02-11T16:00:48.825Z,0
2017-02-11T16:01:59.182Z,0
2017-02-11T16:03:09.951Z,0
2017-02-11T16:04:20.363Z,0
2017-02-11T16:05:31.118Z,0
2017-02-11T16:06:41.916Z,0
2017-02-11T16:07:52.692Z,0
2017-02-11T16:09:03.459Z,0
2017-02-11T16:10:13.891Z,0
2017-02-11T16:11:24.263Z,0
2017-02-11T16:12:34.615Z,0
2017-02-11T16:13:45.360Z,0
2017-02-11T16:14:55.352Z,0
2017-02-11T16:16:06.115Z,0
2017-02-11T16:17:16.082Z,0
2017-02-11T16:18:26.473Z,0
2017-02-11T16:19:37.222Z,0
2017-02-11T16:20:47.986Z,0
2017-02-11T16:21:57.960Z,0
2017-02-11T16:23:08.326Z,0
2017-02-11T16:24:19.091Z,0
2017-02-11T16:25:29.834Z,0
2017-02-11T16:26:40.192Z,0
2017-02-11T16:27:50.626Z,0
2017-02-11T16:29:00.994Z,0
2017-02-11T16:30:11.373Z,0
2017-02-11T16:31:22.140Z,0
2017-02-11T16:32:32.565Z,0
2017-02-11T16:33:43.329Z,0
2017-02-11T16:34:53.310Z,0
2017-02-11T16:36:04.096Z,0
2017-02-11T16:37:14.473Z,0
2017-02-11T16:38:25.270Z,0
2017-02-11T16:39:36.073Z,0
2017-02-11T16:40:46.042Z,0
2017-02-11T16:41:56.797Z,0
2017-02-11T16:43:07.206Z,0
2017-02-11T16:44:17.946Z,0
2017-02-11T16:45:27.979Z,0
2017-02-11T16:46:37.957Z,0
2017-02-11T16:47:48.336Z,0
2017-02-11T16:48:58.297Z,0
2017-02-11T16:50:08.679Z,0
2017-02-11T16:51:18.657Z,0
2017-02-11T16:52:29.444Z,0
2017-02-11T16:53:40.203Z,0
2017-02-11T16:54:50.575Z,0
2017-02-11T16:56:00.962Z,0
2017-02-11T16:57:11.380Z,0
2017-02-11T16:58:22.152Z,0
2017-02-11T16:59:32.114Z,0
2017-02-11T17:00:42.906Z,0
2017-02-11T17:01:53.278Z,0
2017-02-11T17:03:04.036Z,0
2017-02-11T17:04:14.409Z,0
2017-02-11T17:05:24.374Z,0
2017-02-11T17:06:34.730Z,0
2017-02-11T17:07:44.705Z,0
2017-02-11T17:08:55.138Z,0
2017-02-11T17:10:05.515Z,0
2017-02-11T17:11:16.268Z,0
2017-02-11T17:12:26.631Z,0
2017-02-11T17:13:37.000Z,0
2017-02-11T17:14:47.759Z,0
2017-02-11T17:15:58.537Z,0
2017-02-11T17:17:09.336Z,0
2017-02-11T17:18:20.106Z,0